Aviation Digital Data Service (ADDS)

Output produced by METARs form (1921 UTC 18 April 2019)
found at http://www.aviationweather.gov/metar/data/
 
METAR text: OEDF 181900Z 15004KT 9999 FEW040 SCT100 30/13 Q1009 NOSIG
Conditions at: OEDF (KING FAHD INTL , SA) observed 1900 UTC 18 April 2019
Temperature: 30.0°C (86°F)
Dewpoint: 13.0°C (55°F) [RH = 35%]
Pressure (altimeter): 29.79 inches Hg (1009.0 mb)
Winds: from the SSE (150 degrees) at 5 MPH (4 knots; 2.1 m/s)
Visibility: 6 or more miles (10+ km)
Ceiling: at least 12,000 feet AGL
Clouds: few clouds at 4000 feet AGL
scattered clouds at 10000 feet AGL
Weather: no significant weather observed at this time

METAR text: OEDF 181800Z 18003KT 9999 SCT040 SCT100 30/12 Q1009 NOSIG
Conditions at: OEDF (KING FAHD INTL , SA) observed 1800 UTC 18 April 2019
Temperature: 30.0°C (86°F)
Dewpoint: 12.0°C (54°F) [RH = 33%]
Pressure (altimeter): 29.79 inches Hg (1009.0 mb)
Winds: from the S (180 degrees) at 3 MPH (3 knots; 1.5 m/s)
Visibility: 6 or more miles (10+ km)
Ceiling: at least 12,000 feet AGL
Clouds: scattered clouds at 4000 feet AGL
scattered clouds at 10000 feet AGL
Weather: no significant weather observed at this time

METAR text: OEDF 181700Z 13012KT 9999 SCT040 SCT100 31/12 Q1007 NOSIG
Conditions at: OEDF (KING FAHD INTL , SA) observed 1700 UTC 18 April 2019
Temperature: 31.0°C (88°F)
Dewpoint: 12.0°C (54°F) [RH = 31%]
Pressure (altimeter): 29.73 inches Hg (1007.0 mb)
Winds: from the SE (130 degrees) at 14 MPH (12 knots; 6.2 m/s)
Visibility: 6 or more miles (10+ km)
Ceiling: at least 12,000 feet AGL
Clouds: scattered clouds at 4000 feet AGL
scattered clouds at 10000 feet AGL
Weather: no significant weather observed at this time

METAR text: OEDF 181600Z 12008KT 9999 FEW040 BKN100 31/12 Q1007 NOSIG
Conditions at: OEDF (KING FAHD INTL , SA) observed 1600 UTC 18 April 2019
Temperature: 31.0°C (88°F)
Dewpoint: 12.0°C (54°F) [RH = 31%]
Pressure (altimeter): 29.73 inches Hg (1007.0 mb)
Winds: from the ESE (120 degrees) at 9 MPH (8 knots; 4.1 m/s)
Visibility: 6 or more miles (10+ km)
Ceiling: 10000 feet AGL
Clouds: few clouds at 4000 feet AGL
broken clouds at 10000 feet AGL
Weather: no significant weather observed at this time

METAR text: OEDF 181500Z 09012KT 9999 FEW040 BKN100 35/01 Q1006 NOSIG
Conditions at: OEDF (KING FAHD INTL , SA) observed 1500 UTC 18 April 2019
Temperature: 35.0°C (95°F)
Dewpoint: 1.0°C (34°F) [RH = 12%]
Pressure (altimeter): 29.70 inches Hg (1006.0 mb)
Winds: from the E (90 degrees) at 14 MPH (12 knots; 6.2 m/s)
Visibility: 6 or more miles (10+ km)
Ceiling: 10000 feet AGL
Clouds: few clouds at 4000 feet AGL
broken clouds at 10000 feet AGL
Weather: no significant weather observed at this time

METAR text: OEDF 181400Z 14016KT CAVOK 37/00 Q1006 NOSIG
Conditions at: OEDF (KING FAHD INTL , SA) observed 1400 UTC 18 April 2019
Temperature: 37.0°C (99°F)
Dewpoint: 0.0°C (32°F) [RH = 10%]
Pressure (altimeter): 29.70 inches Hg (1006.0 mb)
Winds: from the SE (140 degrees) at 18 MPH (16 knots; 8.2 m/s)
Visibility: 6 or more miles (10+ km)
Ceiling: ceiling and visibility are OK
Clouds: unknown
Weather: no significant weather observed at this time

METAR text: OEDF 181300Z 13016KT CAVOK 37/02 Q1006 NOSIG
Conditions at: OEDF (KING FAHD INTL , SA) observed 1300 UTC 18 April 2019
Temperature: 37.0°C (99°F)
Dewpoint: 2.0°C (36°F) [RH = 11%]
Pressure (altimeter): 29.70 inches Hg (1006.0 mb)
Winds: from the SE (130 degrees) at 18 MPH (16 knots; 8.2 m/s)
Visibility: 6 or more miles (10+ km)
Ceiling: ceiling and visibility are OK
Clouds: unknown
Weather: no significant weather observed at this time

METAR text: OEDF 181200Z 15015KT CAVOK 38/03 Q1007 NOSIG
Conditions at: OEDF (KING FAHD INTL , SA) observed 1200 UTC 18 April 2019
Temperature: 38.0°C (100°F)
Dewpoint: 3.0°C (37°F) [RH = 11%]
Pressure (altimeter): 29.73 inches Hg (1007.0 mb)
Winds: from the SSE (150 degrees) at 17 MPH (15 knots; 7.7 m/s)
Visibility: 6 or more miles (10+ km)
Ceiling: ceiling and visibility are OK
Clouds: unknown
Weather: no significant weather observed at this time

METAR text: OEDF 181100Z 16014KT 9999 FEW040 SCT100 39/02 Q1007 NOSIG
Conditions at: OEDF (KING FAHD INTL , SA) observed 1100 UTC 18 April 2019
Temperature: 39.0°C (102°F)
Dewpoint: 2.0°C (36°F) [RH = 10%]
Pressure (altimeter): 29.73 inches Hg (1007.0 mb)
Winds: from the SSE (160 degrees) at 16 MPH (14 knots; 7.2 m/s)
Visibility: 6 or more miles (10+ km)
Ceiling: at least 12,000 feet AGL
Clouds: few clouds at 4000 feet AGL
scattered clouds at 10000 feet AGL
Weather: no significant weather observed at this time

METAR text: OEDF 181000Z 17014KT 9999 FEW040 SCT100 37/02 Q1008 NOSIG
Conditions at: OEDF (KING FAHD INTL , SA) observed 1000 UTC 18 April 2019
Temperature: 37.0°C (99°F)
Dewpoint: 2.0°C (36°F) [RH = 11%]
Pressure (altimeter): 29.76 inches Hg (1008.0 mb)
Winds: from the S (170 degrees) at 16 MPH (14 knots; 7.2 m/s)
Visibility: 6 or more miles (10+ km)
Ceiling: at least 12,000 feet AGL
Clouds: few clouds at 4000 feet AGL
scattered clouds at 10000 feet AGL
Weather: no significant weather observed at this time

METAR text: OEDF 180900Z 16014KT CAVOK 37/04 Q1009 NOSIG
Conditions at: OEDF (KING FAHD INTL , SA) observed 0900 UTC 18 April 2019
Temperature: 37.0°C (99°F)
Dewpoint: 4.0°C (39°F) [RH = 13%]
Pressure (altimeter): 29.79 inches Hg (1009.0 mb)
Winds: from the SSE (160 degrees) at 16 MPH (14 knots; 7.2 m/s)
Visibility: 6 or more miles (10+ km)
Ceiling: ceiling and visibility are OK
Clouds: unknown
Weather: no significant weather observed at this time

METAR text: OEDF 180800Z 17010KT CAVOK 36/03 Q1010 NOSIG
Conditions at: OEDF (KING FAHD INTL , SA) observed 0800 UTC 18 April 2019
Temperature: 36.0°C (97°F)
Dewpoint: 3.0°C (37°F) [RH = 13%]
Pressure (altimeter): 29.82 inches Hg (1010.0 mb)
Winds: from the S (170 degrees) at 12 MPH (10 knots; 5.1 m/s)
Visibility: 6 or more miles (10+ km)
Ceiling: ceiling and visibility are OK
Clouds: unknown
Weather: no significant weather observed at this time

METAR text: OEDF 180700Z 14010KT CAVOK 34/08 Q1010 NOSIG
Conditions at: OEDF (KING FAHD INTL , SA) observed 0700 UTC 18 April 2019
Temperature: 34.0°C (93°F)
Dewpoint: 8.0°C (46°F) [RH = 20%]
Pressure (altimeter): 29.82 inches Hg (1010.0 mb)
Winds: from the SE (140 degrees) at 12 MPH (10 knots; 5.1 m/s)
Visibility: 6 or more miles (10+ km)
Ceiling: ceiling and visibility are OK
Clouds: unknown
Weather: no significant weather observed at this time

METAR text: OEDF 180600Z 11005KT 9999 FEW040 SCT100 31/12 Q1010 NOSIG
Conditions at: OEDF (KING FAHD INTL , SA) observed 0600 UTC 18 April 2019
Temperature: 31.0°C (88°F)
Dewpoint: 12.0°C (54°F) [RH = 31%]
Pressure (altimeter): 29.82 inches Hg (1010.0 mb)
Winds: from the ESE (110 degrees) at 6 MPH (5 knots; 2.6 m/s)
Visibility: 6 or more miles (10+ km)
Ceiling: at least 12,000 feet AGL
Clouds: few clouds at 4000 feet AGL
scattered clouds at 10000 feet AGL
Weather: no significant weather observed at this time

METAR text: OEDF 180500Z 00000KT 8000 NSC 29/14 Q1011 NOSIG
Conditions at: OEDF (KING FAHD INTL , SA) observed 0500 UTC 18 April 2019
Temperature: 29.0°C (84°F)
Dewpoint: 14.0°C (57°F) [RH = 40%]
Pressure (altimeter): 29.85 inches Hg (1011.0 mb)
Winds: calm
Visibility: 5 miles ( 8 km)
Ceiling: at least 12,000 feet AGL
Clouds: sky clear below 12,000 feet AGL
Weather: no significant weather observed at this time

METAR text: OEDF 180400Z 04006KT 8000 FEW040 SCT100 27/13 Q1011 NOSIG
Conditions at: OEDF (KING FAHD INTL , SA) observed 0400 UTC 18 April 2019
Temperature: 27.0°C (81°F)
Dewpoint: 13.0°C (55°F) [RH = 42%]
Pressure (altimeter): 29.85 inches Hg (1011.0 mb)
Winds: from the NE (40 degrees) at 7 MPH (6 knots; 3.1 m/s)
Visibility: 5 miles ( 8 km)
Ceiling: at least 12,000 feet AGL
Clouds: few clouds at 4000 feet AGL
scattered clouds at 10000 feet AGL
Weather: no significant weather observed at this time

METAR text: OEDF 180300Z 00000KT 7000 NSC 26/09 Q1010 NOSIG
Conditions at: OEDF (KING FAHD INTL , SA) observed 0300 UTC 18 April 2019
Temperature: 26.0°C (79°F)
Dewpoint: 9.0°C (48°F) [RH = 34%]
Pressure (altimeter): 29.82 inches Hg (1010.0 mb)
Winds: calm
Visibility: 4 miles ( 7 km)
Ceiling: at least 12,000 feet AGL
Clouds: sky clear below 12,000 feet AGL
Weather: no significant weather observed at this time

METAR text: OEDF 180200Z VRB03KT 8000 NSC 25/10 Q1010 NOSIG
Conditions at: OEDF (KING FAHD INTL , SA) observed 0200 UTC 18 April 2019
Temperature: 25.0°C (77°F)
Dewpoint: 10.0°C (50°F) [RH = 39%]
Pressure (altimeter): 29.82 inches Hg (1010.0 mb)
Winds: variable direction winds at 3 MPH (3 knots; 1.5 m/s)
Visibility: 5 miles ( 8 km)
Ceiling: at least 12,000 feet AGL
Clouds: sky clear below 12,000 feet AGL
Weather: no significant weather observed at this time

METAR text: OEDF 180100Z 32005KT CAVOK 26/06 Q1009 NOSIG
Conditions at: OEDF (KING FAHD INTL , SA) observed 0100 UTC 18 April 2019
Temperature: 26.0°C (79°F)
Dewpoint: 6.0°C (43°F) [RH = 28%]
Pressure (altimeter): 29.79 inches Hg (1009.0 mb)
Winds: from the NW (320 degrees) at 6 MPH (5 knots; 2.6 m/s)
Visibility: 6 or more miles (10+ km)
Ceiling: ceiling and visibility are OK
Clouds: unknown
Weather: no significant weather observed at this time

METAR text: OEDF 180000Z 00000KT CAVOK 26/09 Q1009 NOSIG
Conditions at: OEDF (KING FAHD INTL , SA) observed 0000 UTC 18 April 2019
Temperature: 26.0°C (79°F)
Dewpoint: 9.0°C (48°F) [RH = 34%]
Pressure (altimeter): 29.79 inches Hg (1009.0 mb)
Winds: calm
Visibility: 6 or more miles (10+ km)
Ceiling: ceiling and visibility are OK
Clouds: unknown
Weather: no significant weather observed at this time

METAR text: OEDF 172300Z 21006KT CAVOK 25/16 Q1008 NOSIG
Conditions at: OEDF (KING FAHD INTL , SA) observed 2300 UTC 17 April 2019
Temperature: 25.0°C (77°F)
Dewpoint: 16.0°C (61°F) [RH = 57%]
Pressure (altimeter): 29.76 inches Hg (1008.0 mb)
Winds: from the SSW (210 degrees) at 7 MPH (6 knots; 3.1 m/s)
Visibility: 6 or more miles (10+ km)
Ceiling: ceiling and visibility are OK
Clouds: unknown
Weather: no significant weather observed at this time

METAR text: OEDF 172200Z 16010KT CAVOK 26/15 Q1008 NOSIG
Conditions at: OEDF (KING FAHD INTL , SA) observed 2200 UTC 17 April 2019
Temperature: 26.0°C (79°F)
Dewpoint: 15.0°C (59°F) [RH = 51%]
Pressure (altimeter): 29.76 inches Hg (1008.0 mb)
Winds: from the SSE (160 degrees) at 12 MPH (10 knots; 5.1 m/s)
Visibility: 6 or more miles (10+ km)
Ceiling: ceiling and visibility are OK
Clouds: unknown
Weather: no significant weather observed at this time

METAR text: OEDF 172100Z 15009KT CAVOK 27/13 Q1008 NOSIG
Conditions at: OEDF (KING FAHD INTL , SA) observed 2100 UTC 17 April 2019
Temperature: 27.0°C (81°F)
Dewpoint: 13.0°C (55°F) [RH = 42%]
Pressure (altimeter): 29.76 inches Hg (1008.0 mb)
Winds: from the SSE (150 degrees) at 10 MPH (9 knots; 4.6 m/s)
Visibility: 6 or more miles (10+ km)
Ceiling: ceiling and visibility are OK
Clouds: unknown
Weather: no significant weather observed at this time

METAR text: OEDF 172000Z 15012KT CAVOK 28/12 Q1008 NOSIG
Conditions at: OEDF (KING FAHD INTL , SA) observed 2000 UTC 17 April 2019
Temperature: 28.0°C (82°F)
Dewpoint: 12.0°C (54°F) [RH = 37%]
Pressure (altimeter): 29.76 inches Hg (1008.0 mb)
Winds: from the SSE (150 degrees) at 14 MPH (12 knots; 6.2 m/s)
Visibility: 6 or more miles (10+ km)
Ceiling: ceiling and visibility are OK
Clouds: unknown
Weather: no significant weather observed at this time

METAR text: OEDF 171900Z 15010KT CAVOK 29/11 Q1008 NOSIG
Conditions at: OEDF (KING FAHD INTL , SA) observed 1900 UTC 17 April 2019
Temperature: 29.0°C (84°F)
Dewpoint: 11.0°C (52°F) [RH = 33%]
Pressure (altimeter): 29.76 inches Hg (1008.0 mb)
Winds: from the SSE (150 degrees) at 12 MPH (10 knots; 5.1 m/s)
Visibility: 6 or more miles (10+ km)
Ceiling: ceiling and visibility are OK
Clouds: unknown
Weather: no significant weather observed at this time

METAR text: OEDF 171800Z 13015KT CAVOK 30/11 Q1008 NOSIG
Conditions at: OEDF (KING FAHD INTL , SA) observed 1800 UTC 17 April 2019
Temperature: 30.0°C (86°F)
Dewpoint: 11.0°C (52°F) [RH = 31%]
Pressure (altimeter): 29.76 inches Hg (1008.0 mb)
Winds: from the SE (130 degrees) at 17 MPH (15 knots; 7.7 m/s)
Visibility: 6 or more miles (10+ km)
Ceiling: ceiling and visibility are OK
Clouds: unknown
Weather: no significant weather observed at this time

METAR text: OEDF 171700Z 14013KT CAVOK 31/11 Q1008 NOSIG
Conditions at: OEDF (KING FAHD INTL , SA) observed 1700 UTC 17 April 2019
Temperature: 31.0°C (88°F)
Dewpoint: 11.0°C (52°F) [RH = 29%]
Pressure (altimeter): 29.76 inches Hg (1008.0 mb)
Winds: from the SE (140 degrees) at 15 MPH (13 knots; 6.7 m/s)
Visibility: 6 or more miles (10+ km)
Ceiling: ceiling and visibility are OK
Clouds: unknown
Weather: no significant weather observed at this time

METAR text: OEDF 171600Z 14012KT CAVOK 33/02 Q1007 NOSIG
Conditions at: OEDF (KING FAHD INTL , SA) observed 1600 UTC 17 April 2019
Temperature: 33.0°C (91°F)
Dewpoint: 2.0°C (36°F) [RH = 14%]
Pressure (altimeter): 29.73 inches Hg (1007.0 mb)
Winds: from the SE (140 degrees) at 14 MPH (12 knots; 6.2 m/s)
Visibility: 6 or more miles (10+ km)
Ceiling: ceiling and visibility are OK
Clouds: unknown
Weather: no significant weather observed at this time

METAR text: OEDF 171500Z 13013KT CAVOK 35/00 Q1007 NOSIG
Conditions at: OEDF (KING FAHD INTL , SA) observed 1500 UTC 17 April 2019
Temperature: 35.0°C (95°F)
Dewpoint: 0.0°C (32°F) [RH = 11%]
Pressure (altimeter): 29.73 inches Hg (1007.0 mb)
Winds: from the SE (130 degrees) at 15 MPH (13 knots; 6.7 m/s)
Visibility: 6 or more miles (10+ km)
Ceiling: ceiling and visibility are OK
Clouds: unknown
Weather: no significant weather observed at this time

METAR text: OEDF 171400Z 18010KT 8000 NSC 39/M04 Q1007 NOSIG
Conditions at: OEDF (KING FAHD INTL , SA) observed 1400 UTC 17 April 2019
Temperature: 39.0°C (102°F)
Dewpoint: -4.0°C (25°F) [RH =  7%]
Pressure (altimeter): 29.73 inches Hg (1007.0 mb)
Winds: from the S (180 degrees) at 12 MPH (10 knots; 5.1 m/s)
Visibility: 5 miles ( 8 km)
Ceiling: at least 12,000 feet AGL
Clouds: sky clear below 12,000 feet AGL
Weather: no significant weather observed at this time

METAR text: OEDF 171300Z 21011KT 7000 NSC 39/M04 Q1007 NOSIG
Conditions at: OEDF (KING FAHD INTL , SA) observed 1300 UTC 17 April 2019
Temperature: 39.0°C (102°F)
Dewpoint: -4.0°C (25°F) [RH =  7%]
Pressure (altimeter): 29.73 inches Hg (1007.0 mb)
Winds: from the SSW (210 degrees) at 13 MPH (11 knots; 5.7 m/s)
Visibility: 4 miles ( 7 km)
Ceiling: at least 12,000 feet AGL
Clouds: sky clear below 12,000 feet AGL
Weather: no significant weather observed at this time

METAR text: OEDF 171200Z 21010KT 7000 NSC 39/M02 Q1007 NOSIG
Conditions at: OEDF (KING FAHD INTL , SA) observed 1200 UTC 17 April 2019
Temperature: 39.0°C (102°F)
Dewpoint: -2.0°C (28°F) [RH =  8%]
Pressure (altimeter): 29.73 inches Hg (1007.0 mb)
Winds: from the SSW (210 degrees) at 12 MPH (10 knots; 5.1 m/s)
Visibility: 4 miles ( 7 km)
Ceiling: at least 12,000 feet AGL
Clouds: sky clear below 12,000 feet AGL
Weather: no significant weather observed at this time

METAR text: OEDF 171100Z 21011KT 7000 NSC 39/M01 Q1008 NOSIG
Conditions at: OEDF (KING FAHD INTL , SA) observed 1100 UTC 17 April 2019
Temperature: 39.0°C (102°F)
Dewpoint: -1.0°C (30°F) [RH =  8%]
Pressure (altimeter): 29.76 inches Hg (1008.0 mb)
Winds: from the SSW (210 degrees) at 13 MPH (11 knots; 5.7 m/s)
Visibility: 4 miles ( 7 km)
Ceiling: at least 12,000 feet AGL
Clouds: sky clear below 12,000 feet AGL
Weather: no significant weather observed at this time

METAR text: OEDF 171000Z 20015KT 7000 NSC 39/M03 Q1009 NOSIG
Conditions at: OEDF (KING FAHD INTL , SA) observed 1000 UTC 17 April 2019
Temperature: 39.0°C (102°F)
Dewpoint: -3.0°C (27°F) [RH =  7%]
Pressure (altimeter): 29.79 inches Hg (1009.0 mb)
Winds: from the SSW (200 degrees) at 17 MPH (15 knots; 7.7 m/s)
Visibility: 4 miles ( 7 km)
Ceiling: at least 12,000 feet AGL
Clouds: sky clear below 12,000 feet AGL
Weather: no significant weather observed at this time

METAR text: OEDF 170900Z 19013KT 7000 NSC 38/M03 Q1009 NOSIG
Conditions at: OEDF (KING FAHD INTL , SA) observed 0900 UTC 17 April 2019
Temperature: 38.0°C (100°F)
Dewpoint: -3.0°C (27°F) [RH =  7%]
Pressure (altimeter): 29.79 inches Hg (1009.0 mb)
Winds: from the S (190 degrees) at 15 MPH (13 knots; 6.7 m/s)
Visibility: 4 miles ( 7 km)
Ceiling: at least 12,000 feet AGL
Clouds: sky clear below 12,000 feet AGL
Weather: no significant weather observed at this time

METAR text: OEDF 170800Z 20015KT 7000 NSC 37/M05 Q1010 NOSIG
Conditions at: OEDF (KING FAHD INTL , SA) observed 0800 UTC 17 April 2019
Temperature: 37.0°C (99°F)
Dewpoint: -5.0°C (23°F) [RH =  7%]
Pressure (altimeter): 29.82 inches Hg (1010.0 mb)
Winds: from the SSW (200 degrees) at 17 MPH (15 knots; 7.7 m/s)
Visibility: 4 miles ( 7 km)
Ceiling: at least 12,000 feet AGL
Clouds: sky clear below 12,000 feet AGL
Weather: no significant weather observed at this time

Forecast for: OEDF (KING FAHD INTL , SA)
Text: TAF OEDF 181428Z 1818/1924 15013KT 8000 NSC
Forecast period: 1800 UTC 18 April 2019 to 0000 UTC 20 April 2019
Forecast type: FROM: standard forecast or significant change
Winds: from the SSE (150 degrees) at 15 MPH (13 knots; 6.7 m/s)
Visibility: 5 miles (8 km)
Ceiling: unknown
Clouds: missing
Weather: no significant weather forecast for this period